Saint-Anselme, Canada
Current Conditions -  °F | °C
As of 3:00 AM on Monday 22 Dec 2014 (Local Time) from CYQB Reporting Station
Light Snow Light Snow  
Wind Chill: 16°   Ceiling: 1200
Heat Index: 16°   Visibility: 15mi
Dew Point: 12°   Wind: 2mph
Humidity: 86%   Direction: 350°N
Pressure: 30.42"   Gusts: NA
Location:  46.62°N, 70.97°W
Report Text: CYQB 220800Z 35002KT 15SM -SN OVC012 M09/M11 A3042 RMK SC8 SLP309
Loading
Personal Weather Stations






























Interactive Weather Map New forecast layout! Learn more

10-Day Weather Forecast

Advertisements
Track Severe Weather on mobile